sensor_id;sensor_type;location;lat;lon;timestamp;temperature;humidity
8226;DHT22;4154;48.810;9.012;2023-01-29T00:01:50;0.80;95.20
8226;DHT22;4154;48.810;9.012;2023-01-29T00:04:17;0.80;95.40
8226;DHT22;4154;48.810;9.012;2023-01-29T00:06:43;0.80;95.50
8226;DHT22;4154;48.810;9.012;2023-01-29T00:11:36;0.70;95.40
8226;DHT22;4154;48.810;9.012;2023-01-29T00:14:02;0.80;95.50
8226;DHT22;4154;48.810;9.012;2023-01-29T00:16:27;0.70;99.90
8226;DHT22;4154;48.810;9.012;2023-01-29T00:18:53;0.80;95.50
8226;DHT22;4154;48.810;9.012;2023-01-29T00:21:20;0.70;95.30
8226;DHT22;4154;48.810;9.012;2023-01-29T00:23:47;0.70;95.50
8226;DHT22;4154;48.810;9.012;2023-01-29T00:28:40;0.80;95.40
8226;DHT22;4154;48.810;9.012;2023-01-29T00:31:19;0.80;95.40
8226;DHT22;4154;48.810;9.012;2023-01-29T00:33:48;0.80;95.30
8226;DHT22;4154;48.810;9.012;2023-01-29T00:36:17;1.00;95.30
8226;DHT22;4154;48.810;9.012;2023-01-29T00:38:44;0.80;95.10
8226;DHT22;4154;48.810;9.012;2023-01-29T00:44:05;0.80;94.90
8226;DHT22;4154;48.810;9.012;2023-01-29T00:46:50;0.90;94.90
8226;DHT22;4154;48.810;9.012;2023-01-29T00:49:16;0.90;94.80
8226;DHT22;4154;48.810;9.012;2023-01-29T00:51:41;0.90;94.80
8226;DHT22;4154;48.810;9.012;2023-01-29T00:54:07;0.80;94.90
8226;DHT22;4154;48.810;9.012;2023-01-29T00:56:35;0.80;94.70
8226;DHT22;4154;48.810;9.012;2023-01-29T00:59:02;0.70;94.90
8226;DHT22;4154;48.810;9.012;2023-01-29T01:04:13;0.70;94.80
8226;DHT22;4154;48.810;9.012;2023-01-29T01:06:40;0.80;95.10
8226;DHT22;4154;48.810;9.012;2023-01-29T01:09:08;0.80;94.80
8226;DHT22;4154;48.810;9.012;2023-01-29T01:14:20;0.70;94.80
8226;DHT22;4154;48.810;9.012;2023-01-29T01:16:46;0.70;95.10
8226;DHT22;4154;48.810;9.012;2023-01-29T01:19:13;0.70;94.90
8226;DHT22;4154;48.810;9.012;2023-01-29T01:21:40;0.70;95.00
8226;DHT22;4154;48.810;9.012;2023-01-29T01:24:10;0.70;95.40
8226;DHT22;4154;48.810;9.012;2023-01-29T01:29:03;0.70;94.70
8226;DHT22;4154;48.810;9.012;2023-01-29T01:31:28;0.60;94.80
8226;DHT22;4154;48.810;9.012;2023-01-29T01:33:54;0.70;94.90
8226;DHT22;4154;48.810;9.012;2023-01-29T01:38:46;0.80;94.50
8226;DHT22;4154;48.810;9.012;2023-01-29T01:41:16;0.80;94.70
8226;DHT22;4154;48.810;9.012;2023-01-29T01:46:22;0.40;99.90
8226;DHT22;4154;48.810;9.012;2023-01-29T01:48:53;0.80;94.80
8226;DHT22;4154;48.810;9.012;2023-01-29T01:51:24;0.80;94.60
8226;DHT22;4154;48.810;9.012;2023-01-29T01:54:00;0.80;94.60
8226;DHT22;4154;48.810;9.012;2023-01-29T01:56:33;3.10;99.90
8226;DHT22;4154;48.810;9.012;2023-01-29T01:59:08;0.80;94.40
8226;DHT22;4154;48.810;9.012;2023-01-29T02:01:36;0.70;94.60
8226;DHT22;4154;48.810;9.012;2023-01-29T02:04:12;0.80;94.50
8226;DHT22;4154;48.810;9.012;2023-01-29T02:07:02;0.70;94.50
8226;DHT22;4154;48.810;9.012;2023-01-29T02:09:52;0.70;94.70
8226;DHT22;4154;48.810;9.012;2023-01-29T02:12:23;0.70;94.80
8226;DHT22;4154;48.810;9.012;2023-01-29T02:14:50;0.80;94.70
8226;DHT22;4154;48.810;9.012;2023-01-29T02:17:18;0.70;94.70
8226;DHT22;4154;48.810;9.012;2023-01-29T02:20:11;0.70;94.90
8226;DHT22;4154;48.810;9.012;2023-01-29T02:27:19;0.60;99.90
8226;DHT22;4154;48.810;9.012;2023-01-29T02:32:15;0.60;94.80
8226;DHT22;4154;48.810;9.012;2023-01-29T02:35:06;0.60;94.80
8226;DHT22;4154;48.810;9.012;2023-01-29T02:38:26;0.60;94.50
8226;DHT22;4154;48.810;9.012;2023-01-29T02:41:13;0.60;94.70
8226;DHT22;4154;48.810;9.012;2023-01-29T02:44:20;0.60;94.70
8226;DHT22;4154;48.810;9.012;2023-01-29T02:47:21;0.60;94.70
8226;DHT22;4154;48.810;9.012;2023-01-29T02:51:00;0.50;94.70
8226;DHT22;4154;48.810;9.012;2023-01-29T02:53:19;0.50;94.70
8226;DHT22;4154;48.810;9.012;2023-01-29T02:56:00;0.40;94.90
8226;DHT22;4154;48.810;9.012;2023-01-29T02:58:45;0.40;95.00
8226;DHT22;4154;48.810;9.012;2023-01-29T03:01:21;0.50;95.10
8226;DHT22;4154;48.810;9.012;2023-01-29T03:03:53;0.40;94.90
8226;DHT22;4154;48.810;9.012;2023-01-29T03:06:26;0.10;99.90
8226;DHT22;4154;48.810;9.012;2023-01-29T03:12:21;0.40;95.10
8226;DHT22;4154;48.810;9.012;2023-01-29T03:14:59;0.40;94.90
8226;DHT22;4154;48.810;9.012;2023-01-29T03:17:43;0.40;95.10
8226;DHT22;4154;48.810;9.012;2023-01-29T03:20:16;0.40;95.00
8226;DHT22;4154;48.810;9.012;2023-01-29T03:22:48;0.50;95.00
8226;DHT22;4154;48.810;9.012;2023-01-29T03:25:20;0.40;95.10
8226;DHT22;4154;48.810;9.012;2023-01-29T03:28:11;0.40;95.20
8226;DHT22;4154;48.810;9.012;2023-01-29T03:31:02;0.40;95.10
8226;DHT22;4154;48.810;9.012;2023-01-29T03:34:17;1.20;95.30
8226;DHT22;4154;48.810;9.012;2023-01-29T03:37:13;0.50;94.90
8226;DHT22;4154;48.810;9.012;2023-01-29T03:42:48;0.60;94.70
8226;DHT22;4154;48.810;9.012;2023-01-29T03:45:42;0.50;94.80
8226;DHT22;4154;48.810;9.012;2023-01-29T03:51:20;0.50;94.80
8226;DHT22;4154;48.810;9.012;2023-01-29T03:57:03;0.50;95.10
8226;DHT22;4154;48.810;9.012;2023-01-29T04:02:12;0.50;94.80
8226;DHT22;4154;48.810;9.012;2023-01-29T04:04:45;0.50;94.90
8226;DHT22;4154;48.810;9.012;2023-01-29T04:07:18;0.60;94.90
8226;DHT22;4154;48.810;9.012;2023-01-29T04:09:57;0.60;94.90
8226;DHT22;4154;48.810;9.012;2023-01-29T04:12:36;0.70;94.80
8226;DHT22;4154;48.810;9.012;2023-01-29T04:15:10;0.70;94.70
8226;DHT22;4154;48.810;9.012;2023-01-29T04:17:42;0.70;94.70
8226;DHT22;4154;48.810;9.012;2023-01-29T04:20:13;0.70;94.70
8226;DHT22;4154;48.810;9.012;2023-01-29T04:25:14;0.60;94.70
8226;DHT22;4154;48.810;9.012;2023-01-29T04:31:03;0.50;95.20
8226;DHT22;4154;48.810;9.012;2023-01-29T04:33:53;0.50;95.40
8226;DHT22;4154;48.810;9.012;2023-01-29T04:42:47;0.40;95.40
8226;DHT22;4154;48.810;9.012;2023-01-29T04:54:00;0.30;95.80
8226;DHT22;4154;48.810;9.012;2023-01-29T04:56:45;0.30;95.70
8226;DHT22;4154;48.810;9.012;2023-01-29T04:59:31;0.30;95.90
8226;DHT22;4154;48.810;9.012;2023-01-29T05:02:00;0.40;95.80
8226;DHT22;4154;48.810;9.012;2023-01-29T05:04:30;0.30;95.80
8226;DHT22;4154;48.810;9.012;2023-01-29T05:07:02;0.30;95.80
8226;DHT22;4154;48.810;9.012;2023-01-29T05:09:31;0.30;95.80
8226;DHT22;4154;48.810;9.012;2023-01-29T05:11:59;0.30;95.80
8226;DHT22;4154;48.810;9.012;2023-01-29T05:14:27;0.40;95.70
8226;DHT22;4154;48.810;9.012;2023-01-29T05:17:01;0.40;95.80
8226;DHT22;4154;48.810;9.012;2023-01-29T05:21:55;0.40;95.50
8226;DHT22;4154;48.810;9.012;2023-01-29T05:24:24;0.40;95.60
8226;DHT22;4154;48.810;9.012;2023-01-29T05:26:52;0.40;95.80
8226;DHT22;4154;48.810;9.012;2023-01-29T05:29:44;0.40;95.70
8226;DHT22;4154;48.810;9.012;2023-01-29T05:32:11;0.40;95.50
8226;DHT22;4154;48.810;9.012;2023-01-29T05:34:37;0.30;95.70
8226;DHT22;4154;48.810;9.012;2023-01-29T05:37:03;0.20;96.00
8226;DHT22;4154;48.810;9.012;2023-01-29T05:39:29;0.20;96.10
8226;DHT22;4154;48.810;9.012;2023-01-29T05:44:20;0.10;95.70
8226;DHT22;4154;48.810;9.012;2023-01-29T05:46:46;0.10;95.90
8226;DHT22;4154;48.810;9.012;2023-01-29T05:49:12;0.20;95.90
8226;DHT22;4154;48.810;9.012;2023-01-29T05:54:04;0.10;95.70
8226;DHT22;4154;48.810;9.012;2023-01-29T05:58:56;0.20;95.70
8226;DHT22;4154;48.810;9.012;2023-01-29T06:01:23;0.30;95.60
8226;DHT22;4154;48.810;9.012;2023-01-29T06:03:50;0.30;95.80
8226;DHT22;4154;48.810;9.012;2023-01-29T06:06:15;0.30;99.90
8226;DHT22;4154;48.810;9.012;2023-01-29T06:11:10;0.20;95.50
8226;DHT22;4154;48.810;9.012;2023-01-29T06:13:37;0.20;95.70
8226;DHT22;4154;48.810;9.012;2023-01-29T06:16:09;0.20;95.50
8226;DHT22;4154;48.810;9.012;2023-01-29T06:18:37;0.10;95.40
8226;DHT22;4154;48.810;9.012;2023-01-29T06:21:05;0.20;95.70
8226;DHT22;4154;48.810;9.012;2023-01-29T06:23:33;0.10;95.60
8226;DHT22;4154;48.810;9.012;2023-01-29T06:26:04;0.10;95.70
8226;DHT22;4154;48.810;9.012;2023-01-29T06:28:34;0.10;95.80
8226;DHT22;4154;48.810;9.012;2023-01-29T06:31:01;0.10;95.80
8226;DHT22;4154;48.810;9.012;2023-01-29T06:33:28;0.10;95.80
8226;DHT22;4154;48.810;9.012;2023-01-29T06:35:58;0.10;95.70
8226;DHT22;4154;48.810;9.012;2023-01-29T06:38:25;0.10;95.80
8226;DHT22;4154;48.810;9.012;2023-01-29T06:40:52;0.10;95.80
8226;DHT22;4154;48.810;9.012;2023-01-29T06:43:19;0.10;95.80
8226;DHT22;4154;48.810;9.012;2023-01-29T06:45:48;0.10;95.70
8226;DHT22;4154;48.810;9.012;2023-01-29T06:48:14;0.10;95.60
8226;DHT22;4154;48.810;9.012;2023-01-29T06:50:40;0.10;95.60
8226;DHT22;4154;48.810;9.012;2023-01-29T06:53:06;0.10;95.70
8226;DHT22;4154;48.810;9.012;2023-01-29T06:55:31;0.10;95.70
8226;DHT22;4154;48.810;9.012;2023-01-29T06:57:57;0.10;95.70
8226;DHT22;4154;48.810;9.012;2023-01-29T07:00:23;0.10;95.80
8226;DHT22;4154;48.810;9.012;2023-01-29T07:02:49;0.10;95.80
8226;DHT22;4154;48.810;9.012;2023-01-29T07:05:15;0.20;95.90
8226;DHT22;4154;48.810;9.012;2023-01-29T07:07:40;0.20;95.90
8226;DHT22;4154;48.810;9.012;2023-01-29T07:10:06;0.20;95.80
8226;DHT22;4154;48.810;9.012;2023-01-29T07:12:32;0.10;95.70
8226;DHT22;4154;48.810;9.012;2023-01-29T07:14:58;0.20;95.80
8226;DHT22;4154;48.810;9.012;2023-01-29T07:17:24;0.20;95.70
8226;DHT22;4154;48.810;9.012;2023-01-29T07:19:49;0.20;95.50
8226;DHT22;4154;48.810;9.012;2023-01-29T07:22:15;0.20;95.40
8226;DHT22;4154;48.810;9.012;2023-01-29T07:24:41;0.20;95.60
8226;DHT22;4154;48.810;9.012;2023-01-29T07:27:07;0.20;95.60
8226;DHT22;4154;48.810;9.012;2023-01-29T07:29:32;0.20;95.60
8226;DHT22;4154;48.810;9.012;2023-01-29T07:31:58;0.30;95.70
8226;DHT22;4154;48.810;9.012;2023-01-29T07:34:24;0.30;95.70
8226;DHT22;4154;48.810;9.012;2023-01-29T07:36:52;0.20;95.60
8226;DHT22;4154;48.810;9.012;2023-01-29T07:39:18;0.20;95.50
8226;DHT22;4154;48.810;9.012;2023-01-29T07:44:10;0.20;95.40
8226;DHT22;4154;48.810;9.012;2023-01-29T07:49:01;0.10;95.80
8226;DHT22;4154;48.810;9.012;2023-01-29T07:51:27;0.10;96.00
8226;DHT22;4154;48.810;9.012;2023-01-29T07:53:52;0.20;96.00
8226;DHT22;4154;48.810;9.012;2023-01-29T07:56:18;0.30;99.90
8226;DHT22;4154;48.810;9.012;2023-01-29T08:01:10;0.30;95.70
8226;DHT22;4154;48.810;9.012;2023-01-29T08:03:35;0.30;96.00
8226;DHT22;4154;48.810;9.012;2023-01-29T08:06:02;0.30;96.00
8226;DHT22;4154;48.810;9.012;2023-01-29T08:10:54;0.40;95.90
8226;DHT22;4154;48.810;9.012;2023-01-29T08:13:20;0.40;96.10
8226;DHT22;4154;48.810;9.012;2023-01-29T08:15:46;0.40;96.10
8226;DHT22;4154;48.810;9.012;2023-01-29T08:18:13;0.40;96.00
8226;DHT22;4154;48.810;9.012;2023-01-29T08:20:39;0.40;96.00
8226;DHT22;4154;48.810;9.012;2023-01-29T08:23:06;0.40;96.00
8226;DHT22;4154;48.810;9.012;2023-01-29T08:25:35;0.40;96.00
8226;DHT22;4154;48.810;9.012;2023-01-29T08:28:01;0.40;96.10
8226;DHT22;4154;48.810;9.012;2023-01-29T08:30:31;0.40;96.10
8226;DHT22;4154;48.810;9.012;2023-01-29T08:35:24;0.50;96.00
8226;DHT22;4154;48.810;9.012;2023-01-29T08:37:56;0.50;96.10
8226;DHT22;4154;48.810;9.012;2023-01-29T08:40:27;0.60;95.90
8226;DHT22;4154;48.810;9.012;2023-01-29T08:43:00;0.60;96.10
8226;DHT22;4154;48.810;9.012;2023-01-29T08:45:27;0.60;96.10
8226;DHT22;4154;48.810;9.012;2023-01-29T08:47:52;0.60;96.10
8226;DHT22;4154;48.810;9.012;2023-01-29T08:50:18;0.60;96.00
8226;DHT22;4154;48.810;9.012;2023-01-29T08:55:11;0.60;95.50
8226;DHT22;4154;48.810;9.012;2023-01-29T08:57:37;0.70;95.60
8226;DHT22;4154;48.810;9.012;2023-01-29T09:00:05;0.60;95.60
8226;DHT22;4154;48.810;9.012;2023-01-29T09:04:59;0.60;95.70
8226;DHT22;4154;48.810;9.012;2023-01-29T09:07:25;0.60;95.90
8226;DHT22;4154;48.810;9.012;2023-01-29T09:09:50;0.60;95.90
8226;DHT22;4154;48.810;9.012;2023-01-29T09:14:42;0.60;95.60
8226;DHT22;4154;48.810;9.012;2023-01-29T09:17:08;0.70;95.90
8226;DHT22;4154;48.810;9.012;2023-01-29T09:21:59;0.80;95.60
8226;DHT22;4154;48.810;9.012;2023-01-29T09:24:25;0.90;95.70
8226;DHT22;4154;48.810;9.012;2023-01-29T09:26:50;0.90;95.70
8226;DHT22;4154;48.810;9.012;2023-01-29T09:29:16;1.00;95.70
8226;DHT22;4154;48.810;9.012;2023-01-29T09:31:41;1.00;95.80
8226;DHT22;4154;48.810;9.012;2023-01-29T09:34:07;1.00;95.80
8226;DHT22;4154;48.810;9.012;2023-01-29T09:38:59;0.70;95.70
8226;DHT22;4154;48.810;9.012;2023-01-29T09:47:23;0.90;96.10
8226;DHT22;4154;48.810;9.012;2023-01-29T09:49:55;0.90;96.10
8226;DHT22;4154;48.810;9.012;2023-01-29T09:57:52;1.30;95.80
8226;DHT22;4154;48.810;9.012;2023-01-29T10:06:24;1.70;94.50
8226;DHT22;4154;48.810;9.012;2023-01-29T10:12:04;2.00;93.60
8226;DHT22;4154;48.810;9.012;2023-01-29T10:17:59;2.20;93.70
8226;DHT22;4154;48.810;9.012;2023-01-29T10:20:54;2.20;93.50
8226;DHT22;4154;48.810;9.012;2023-01-29T10:23:32;2.30;93.20
8226;DHT22;4154;48.810;9.012;2023-01-29T10:28:35;2.40;92.70
8226;DHT22;4154;48.810;9.012;2023-01-29T10:34:01;2.40;92.40
8226;DHT22;4154;48.810;9.012;2023-01-29T10:36:47;2.30;92.60
8226;DHT22;4154;48.810;9.012;2023-01-29T10:39:18;2.40;92.80
8226;DHT22;4154;48.810;9.012;2023-01-29T10:45:42;2.50;92.70
8226;DHT22;4154;48.810;9.012;2023-01-29T10:48:42;2.50;92.60
8226;DHT22;4154;48.810;9.012;2023-01-29T10:51:39;2.50;92.90
8226;DHT22;4154;48.810;9.012;2023-01-29T11:05:32;2.50;92.70
8226;DHT22;4154;48.810;9.012;2023-01-29T11:08:09;2.50;93.00
8226;DHT22;4154;48.810;9.012;2023-01-29T11:13:46;2.60;92.60
8226;DHT22;4154;48.810;9.012;2023-01-29T11:18:58;2.70;91.60
8226;DHT22;4154;48.810;9.012;2023-01-29T11:21:26;2.80;91.60
8226;DHT22;4154;48.810;9.012;2023-01-29T11:24:11;2.70;91.70
8226;DHT22;4154;48.810;9.012;2023-01-29T11:26:42;2.60;91.50
8226;DHT22;4154;48.810;9.012;2023-01-29T11:29:29;2.60;91.70
8226;DHT22;4154;48.810;9.012;2023-01-29T11:32:11;2.60;92.20
8226;DHT22;4154;48.810;9.012;2023-01-29T11:35:01;2.60;92.20
8226;DHT22;4154;48.810;9.012;2023-01-29T11:42:29;2.60;91.80
8226;DHT22;4154;48.810;9.012;2023-01-29T11:44:55;2.60;91.90
8226;DHT22;4154;48.810;9.012;2023-01-29T11:47:25;2.60;92.00
8226;DHT22;4154;48.810;9.012;2023-01-29T11:49:55;2.50;92.20
8226;DHT22;4154;48.810;9.012;2023-01-29T11:52:34;2.60;91.90
8226;DHT22;4154;48.810;9.012;2023-01-29T11:55:15;2.60;91.90
8226;DHT22;4154;48.810;9.012;2023-01-29T11:57:47;2.60;91.90
8226;DHT22;4154;48.810;9.012;2023-01-29T12:00:34;2.60;91.90
8226;DHT22;4154;48.810;9.012;2023-01-29T12:03:15;2.70;92.10
8226;DHT22;4154;48.810;9.012;2023-01-29T12:06:07;2.70;92.20
8226;DHT22;4154;48.810;9.012;2023-01-29T12:08:44;2.70;92.30
8226;DHT22;4154;48.810;9.012;2023-01-29T12:11:33;2.70;92.10
8226;DHT22;4154;48.810;9.012;2023-01-29T12:14:04;2.70;92.20
8226;DHT22;4154;48.810;9.012;2023-01-29T12:17:11;2.70;92.20
8226;DHT22;4154;48.810;9.012;2023-01-29T12:20:00;2.80;92.20
8226;DHT22;4154;48.810;9.012;2023-01-29T12:22:41;2.80;92.30
8226;DHT22;4154;48.810;9.012;2023-01-29T12:25:24;2.80;92.30
8226;DHT22;4154;48.810;9.012;2023-01-29T12:31:12;3.00;91.70
8226;DHT22;4154;48.810;9.012;2023-01-29T12:34:07;3.00;91.90
8226;DHT22;4154;48.810;9.012;2023-01-29T12:36:46;3.00;92.00
8226;DHT22;4154;48.810;9.012;2023-01-29T12:39:18;3.00;92.20
8226;DHT22;4154;48.810;9.012;2023-01-29T12:41:55;3.00;92.00
8226;DHT22;4154;48.810;9.012;2023-01-29T12:44:31;3.10;91.70
8226;DHT22;4154;48.810;9.012;2023-01-29T12:47:11;3.00;91.50
8226;DHT22;4154;48.810;9.012;2023-01-29T12:49:42;2.90;91.70
8226;DHT22;4154;48.810;9.012;2023-01-29T12:52:17;3.00;92.00
8226;DHT22;4154;48.810;9.012;2023-01-29T12:58:14;3.00;91.90
8226;DHT22;4154;48.810;9.012;2023-01-29T13:00:49;2.90;91.60
8226;DHT22;4154;48.810;9.012;2023-01-29T13:03:24;3.10;91.90
8226;DHT22;4154;48.810;9.012;2023-01-29T13:06:02;3.10;92.10
8226;DHT22;4154;48.810;9.012;2023-01-29T13:14:22;3.00;91.60
8226;DHT22;4154;48.810;9.012;2023-01-29T13:16:56;2.90;91.30
8226;DHT22;4154;48.810;9.012;2023-01-29T13:19:36;2.90;91.50
8226;DHT22;4154;48.810;9.012;2023-01-29T13:22:22;3.00;92.90
8226;DHT22;4154;48.810;9.012;2023-01-29T13:24:51;3.00;92.00
8226;DHT22;4154;48.810;9.012;2023-01-29T13:27:24;3.00;92.20
8226;DHT22;4154;48.810;9.012;2023-01-29T13:29:52;3.10;91.80
8226;DHT22;4154;48.810;9.012;2023-01-29T13:32:25;3.10;92.00
8226;DHT22;4154;48.810;9.012;2023-01-29T13:34:58;3.20;92.00
8226;DHT22;4154;48.810;9.012;2023-01-29T13:37:35;3.20;91.80
8226;DHT22;4154;48.810;9.012;2023-01-29T13:40:07;3.30;91.70
8226;DHT22;4154;48.810;9.012;2023-01-29T13:42:46;3.20;91.50
8226;DHT22;4154;48.810;9.012;2023-01-29T13:45:22;3.20;91.70
8226;DHT22;4154;48.810;9.012;2023-01-29T13:47:50;3.20;91.50
8226;DHT22;4154;48.810;9.012;2023-01-29T13:50:23;3.20;91.50
8226;DHT22;4154;48.810;9.012;2023-01-29T13:53:02;3.20;91.70
8226;DHT22;4154;48.810;9.012;2023-01-29T13:55:32;3.20;92.00
8226;DHT22;4154;48.810;9.012;2023-01-29T14:00:56;3.30;91.80
8226;DHT22;4154;48.810;9.012;2023-01-29T14:05:57;3.40;91.70
8226;DHT22;4154;48.810;9.012;2023-01-29T14:13:41;3.50;91.20
8226;DHT22;4154;48.810;9.012;2023-01-29T14:18:59;3.50;91.40
8226;DHT22;4154;48.810;9.012;2023-01-29T14:21:36;3.60;91.50
8226;DHT22;4154;48.810;9.012;2023-01-29T14:26:44;3.50;91.40
8226;DHT22;4154;48.810;9.012;2023-01-29T14:31:43;3.40;91.80
8226;DHT22;4154;48.810;9.012;2023-01-29T14:37:00;3.30;92.00
8226;DHT22;4154;48.810;9.012;2023-01-29T14:39:51;3.30;91.80
8226;DHT22;4154;48.810;9.012;2023-01-29T14:42:33;3.20;92.00
8226;DHT22;4154;48.810;9.012;2023-01-29T14:48:35;3.10;92.00
8226;DHT22;4154;48.810;9.012;2023-01-29T14:51:14;3.00;92.20
8226;DHT22;4154;48.810;9.012;2023-01-29T14:54:01;2.90;92.40
8226;DHT22;4154;48.810;9.012;2023-01-29T14:59:29;2.80;92.50
8226;DHT22;4154;48.810;9.012;2023-01-29T15:02:03;2.80;92.60
8226;DHT22;4154;48.810;9.012;2023-01-29T15:04:46;2.80;92.50
8226;DHT22;4154;48.810;9.012;2023-01-29T15:07:34;2.70;92.60
8226;DHT22;4154;48.810;9.012;2023-01-29T15:10:26;2.80;92.60
8226;DHT22;4154;48.810;9.012;2023-01-29T15:13:11;2.80;92.70
8226;DHT22;4154;48.810;9.012;2023-01-29T15:18:40;2.70;93.00
8226;DHT22;4154;48.810;9.012;2023-01-29T15:21:12;2.70;93.10
8226;DHT22;4154;48.810;9.012;2023-01-29T15:23:41;2.60;93.10
8226;DHT22;4154;48.810;9.012;2023-01-29T15:26:10;2.60;92.90
8226;DHT22;4154;48.810;9.012;2023-01-29T15:28:41;2.50;93.10
8226;DHT22;4154;48.810;9.012;2023-01-29T15:31:13;2.50;93.20
8226;DHT22;4154;48.810;9.012;2023-01-29T15:33:45;2.50;93.30
8226;DHT22;4154;48.810;9.012;2023-01-29T15:36:31;2.50;93.20
8226;DHT22;4154;48.810;9.012;2023-01-29T15:46:42;2.40;93.40
8226;DHT22;4154;48.810;9.012;2023-01-29T15:49:28;2.40;93.40
8226;DHT22;4154;48.810;9.012;2023-01-29T15:51:58;2.40;93.50
8226;DHT22;4154;48.810;9.012;2023-01-29T15:54:30;2.30;93.50
8226;DHT22;4154;48.810;9.012;2023-01-29T15:56:58;2.40;93.50
8226;DHT22;4154;48.810;9.012;2023-01-29T15:59:27;2.30;93.50
8226;DHT22;4154;48.810;9.012;2023-01-29T16:05:13;2.30;93.70
8226;DHT22;4154;48.810;9.012;2023-01-29T16:07:42;2.20;93.70
8226;DHT22;4154;48.810;9.012;2023-01-29T16:10:20;2.20;93.70
8226;DHT22;4154;48.810;9.012;2023-01-29T16:12:49;2.10;93.70
8226;DHT22;4154;48.810;9.012;2023-01-29T16:15:22;2.10;93.70
8226;DHT22;4154;48.810;9.012;2023-01-29T16:20:41;2.10;93.40
8226;DHT22;4154;48.810;9.012;2023-01-29T16:23:21;2.10;93.50
8226;DHT22;4154;48.810;9.012;2023-01-29T16:25:50;2.10;93.40
8226;DHT22;4154;48.810;9.012;2023-01-29T16:28:17;2.10;93.30
8226;DHT22;4154;48.810;9.012;2023-01-29T16:33:14;2.00;93.30
8226;DHT22;4154;48.810;9.012;2023-01-29T16:35:41;2.00;93.60
8226;DHT22;4154;48.810;9.012;2023-01-29T16:38:28;1.90;93.60
8226;DHT22;4154;48.810;9.012;2023-01-29T16:41:26;1.90;93.70
8226;DHT22;4154;48.810;9.012;2023-01-29T16:46:47;1.80;93.90
8226;DHT22;4154;48.810;9.012;2023-01-29T16:51:52;1.80;93.90
8226;DHT22;4154;48.810;9.012;2023-01-29T16:54:23;1.70;93.70
8226;DHT22;4154;48.810;9.012;2023-01-29T16:56:59;1.70;93.90
8226;DHT22;4154;48.810;9.012;2023-01-29T16:59:35;1.70;93.90
8226;DHT22;4154;48.810;9.012;2023-01-29T17:02:03;1.70;93.90
8226;DHT22;4154;48.810;9.012;2023-01-29T17:04:39;1.70;94.20
8226;DHT22;4154;48.810;9.012;2023-01-29T17:09:40;1.60;93.80
8226;DHT22;4154;48.810;9.012;2023-01-29T17:12:08;1.50;94.10
8226;DHT22;4154;48.810;9.012;2023-01-29T17:14:52;1.60;94.10
8226;DHT22;4154;48.810;9.012;2023-01-29T17:17:31;1.50;94.20
8226;DHT22;4154;48.810;9.012;2023-01-29T17:20:10;1.50;94.30
8226;DHT22;4154;48.810;9.012;2023-01-29T17:22:38;1.40;99.60
8226;DHT22;4154;48.810;9.012;2023-01-29T17:25:04;1.50;94.40
8226;DHT22;4154;48.810;9.012;2023-01-29T17:29:57;1.40;94.30
8226;DHT22;4154;48.810;9.012;2023-01-29T17:37:18;1.30;94.40
8226;DHT22;4154;48.810;9.012;2023-01-29T17:39:46;1.30;94.40
8226;DHT22;4154;48.810;9.012;2023-01-29T17:44:41;1.20;94.50
8226;DHT22;4154;48.810;9.012;2023-01-29T17:47:13;1.20;94.80
8226;DHT22;4154;48.810;9.012;2023-01-29T17:54:37;1.10;94.70
8226;DHT22;4154;48.810;9.012;2023-01-29T17:59:31;1.10;94.70
8226;DHT22;4154;48.810;9.012;2023-01-29T18:01:58;1.10;94.90
8226;DHT22;4154;48.810;9.012;2023-01-29T18:04:23;1.10;94.90
8226;DHT22;4154;48.810;9.012;2023-01-29T18:09:19;0.90;94.90
8226;DHT22;4154;48.810;9.012;2023-01-29T18:11:46;0.90;94.90
8226;DHT22;4154;48.810;9.012;2023-01-29T18:16:41;0.80;94.90
8226;DHT22;4154;48.810;9.012;2023-01-29T18:19:19;0.80;94.90
8226;DHT22;4154;48.810;9.012;2023-01-29T18:33:59;0.70;95.00
8226;DHT22;4154;48.810;9.012;2023-01-29T18:41:17;0.60;95.10
8226;DHT22;4154;48.810;9.012;2023-01-29T18:46:12;0.50;95.10
8226;DHT22;4154;48.810;9.012;2023-01-29T18:48:38;0.30;99.90
8226;DHT22;4154;48.810;9.012;2023-01-29T18:56:02;0.60;95.30
8226;DHT22;4154;48.810;9.012;2023-01-29T18:58:34;0.70;99.90
8226;DHT22;4154;48.810;9.012;2023-01-29T19:01:03;0.60;95.40
8226;DHT22;4154;48.810;9.012;2023-01-29T19:03:34;0.60;95.40
8226;DHT22;4154;48.810;9.012;2023-01-29T19:06:02;0.50;95.30
8226;DHT22;4154;48.810;9.012;2023-01-29T19:18:20;0.50;95.40
8226;DHT22;4154;48.810;9.012;2023-01-29T19:20:46;0.30;99.90
8226;DHT22;4154;48.810;9.012;2023-01-29T19:23:14;0.30;95.70
8226;DHT22;4154;48.810;9.012;2023-01-29T19:28:06;0.30;95.60
8226;DHT22;4154;48.810;9.012;2023-01-29T19:32:59;0.30;95.60
8226;DHT22;4154;48.810;9.012;2023-01-29T19:35:25;0.20;95.80
8226;DHT22;4154;48.810;9.012;2023-01-29T19:37:51;0.30;95.90
8226;DHT22;4154;48.810;9.012;2023-01-29T19:40:18;0.20;95.80
8226;DHT22;4154;48.810;9.012;2023-01-29T19:47:41;0.30;95.70
8226;DHT22;4154;48.810;9.012;2023-01-29T19:50:09;0.20;95.80
8226;DHT22;4154;48.810;9.012;2023-01-29T19:52:35;0.20;95.80
8226;DHT22;4154;48.810;9.012;2023-01-29T19:55:03;0.10;95.60
8226;DHT22;4154;48.810;9.012;2023-01-29T19:59:59;0.10;95.70
8226;DHT22;4154;48.810;9.012;2023-01-29T20:02:26;0.00;95.80
8226;DHT22;4154;48.810;9.012;2023-01-29T20:04:54;0.10;95.80
8226;DHT22;4154;48.810;9.012;2023-01-29T20:12:13;0.10;95.80
8226;DHT22;4154;48.810;9.012;2023-01-29T20:14:40;0.10;95.90
8226;DHT22;4154;48.810;9.012;2023-01-29T20:19:40;0.00;95.70
8226;DHT22;4154;48.810;9.012;2023-01-29T20:34:25;0.00;95.60
8226;DHT22;4154;48.810;9.012;2023-01-29T20:39:16;-0.10;95.50
8226;DHT22;4154;48.810;9.012;2023-01-29T20:49:01;-0.30;95.70
8226;DHT22;4154;48.810;9.012;2023-01-29T21:01:15;-0.60;95.70
8226;DHT22;4154;48.810;9.012;2023-01-29T21:08:38;-0.80;95.60
8226;DHT22;4154;48.810;9.012;2023-01-29T21:11:06;-0.90;95.60
8226;DHT22;4154;48.810;9.012;2023-01-29T21:13:33;-0.90;95.80
8226;DHT22;4154;48.810;9.012;2023-01-29T21:16:00;-0.90;95.90
8226;DHT22;4154;48.810;9.012;2023-01-29T21:18:26;-1.00;96.00
8226;DHT22;4154;48.810;9.012;2023-01-29T21:20:53;-1.10;95.80
8226;DHT22;4154;48.810;9.012;2023-01-29T21:23:20;-1.10;96.10
8226;DHT22;4154;48.810;9.012;2023-01-29T21:25:46;-1.10;96.00
8226;DHT22;4154;48.810;9.012;2023-01-29T21:28:13;-1.00;96.20
8226;DHT22;4154;48.810;9.012;2023-01-29T21:33:05;-1.00;96.00
8226;DHT22;4154;48.810;9.012;2023-01-29T21:35:37;-0.50;96.40
8226;DHT22;4154;48.810;9.012;2023-01-29T21:38:09;-1.00;96.30
8226;DHT22;4154;48.810;9.012;2023-01-29T21:55:22;-0.80;96.00
8226;DHT22;4154;48.810;9.012;2023-01-29T21:57:48;-0.80;96.20
8226;DHT22;4154;48.810;9.012;2023-01-29T22:02:40;-0.90;96.00
8226;DHT22;4154;48.810;9.012;2023-01-29T22:05:07;-0.90;96.10
8226;DHT22;4154;48.810;9.012;2023-01-29T22:12:25;-1.00;95.80
8226;DHT22;4154;48.810;9.012;2023-01-29T22:14:51;-1.00;96.00
8226;DHT22;4154;48.810;9.012;2023-01-29T22:17:17;-0.90;96.10
8226;DHT22;4154;48.810;9.012;2023-01-29T22:22:14;-0.90;95.70
8226;DHT22;4154;48.810;9.012;2023-01-29T22:24:42;-1.00;95.80
8226;DHT22;4154;48.810;9.012;2023-01-29T22:32:03;-1.00;95.80
8226;DHT22;4154;48.810;9.012;2023-01-29T22:49:09;-1.00;95.70
8226;DHT22;4154;48.810;9.012;2023-01-29T22:58:57;-1.10;95.70
8226;DHT22;4154;48.810;9.012;2023-01-29T23:01:27;-1.20;95.70
8226;DHT22;4154;48.810;9.012;2023-01-29T23:11:17;-1.40;95.80
8226;DHT22;4154;48.810;9.012;2023-01-29T23:13:47;-1.30;96.00
8226;DHT22;4154;48.810;9.012;2023-01-29T23:16:18;-1.20;99.90
8226;DHT22;4154;48.810;9.012;2023-01-29T23:18:49;-1.40;95.70
8226;DHT22;4154;48.810;9.012;2023-01-29T23:21:20;-1.50;95.90
8226;DHT22;4154;48.810;9.012;2023-01-29T23:23:47;-1.50;95.70
8226;DHT22;4154;48.810;9.012;2023-01-29T23:33:51;-1.40;95.70